Time;durP1;ratioP1;P1;durP2;ratioP2;P2;SDS_P1;SDS_P2;PMS_P1;PMS_P2;Temp;Humidity;BMP_temperature;BMP_pressure;BME280_temperature;BME280_humidity;BME280_pressure;Samples;Min_cycle;Max_cycle;Signal;HPM_P1;HPM_P2
2022/04/19 00:01:37;;;;;;;9.32;6.97;;;9.40;99.90;;;;;;5068946;28;20048;-72
2022/04/19 00:04:04;;;;;;;9.52;6.53;;;9.30;99.90;;;;;;5060429;28;20113;-72
2022/04/19 00:06:30;;;;;;;9.60;7.10;;;9.30;99.90;;;;;;5058748;28;20033;-73
2022/04/19 00:08:55;;;;;;;9.63;6.97;;;9.30;99.90;;;;;;5073911;28;20040;-73
2022/04/19 00:11:21;;;;;;;10.23;6.30;;;9.30;99.90;;;;;;5074287;28;20044;-72
2022/04/19 00:13:47;;;;;;;9.30;6.90;;;9.30;99.90;;;;;;5071942;28;20061;-72
2022/04/19 00:16:14;;;;;;;8.77;6.80;;;9.20;99.90;;;;;;5069663;28;20166;-73
2022/04/19 00:18:40;;;;;;;8.68;6.93;;;9.20;99.90;;;;;;5065378;28;20044;-73
2022/04/19 00:21:06;;;;;;;10.73;6.93;;;9.00;99.90;;;;;;5068397;28;20040;-72
2022/04/19 00:23:31;;;;;;;20.98;7.15;;;9.00;99.90;;;;;;5041382;28;20104;-73
2022/04/19 00:25:57;;;;;;;10.07;6.47;;;9.00;99.90;;;;;;5074358;28;20051;-73
2022/04/19 00:28:23;;;;;;;10.82;7.00;;;9.00;99.90;;;;;;5076273;28;20064;-72
2022/04/19 00:30:49;;;;;;;8.77;6.75;;;8.90;99.90;;;;;;5051465;28;20044;-73
2022/04/19 00:33:15;;;;;;;9.50;7.20;;;8.90;99.90;;;;;;5066277;28;20116;-73
2022/04/19 00:35:42;;;;;;;9.23;7.35;;;8.90;99.90;;;;;;5065942;28;20074;-73
2022/04/19 00:38:08;;;;;;;13.90;7.70;;;8.90;99.90;;;;;;5064992;28;20049;-73
2022/04/19 00:40:34;;;;;;;11.13;7.90;;;8.80;99.90;;;;;;5067491;28;20047;-73
2022/04/19 00:43:01;;;;;;;11.95;6.88;;;8.80;99.90;;;;;;5064483;28;20069;-73
2022/04/19 00:45:27;;;;;;;11.57;7.47;;;8.80;99.90;;;;;;5067959;28;20074;-73
2022/04/19 00:47:54;;;;;;;10.00;7.10;;;8.70;99.90;;;;;;5048005;28;20049;-73
2022/04/19 00:50:20;;;;;;;10.70;7.25;;;8.70;99.90;;;;;;5064195;28;20129;-73
2022/04/19 00:52:46;;;;;;;11.85;6.93;;;8.70;99.90;;;;;;5064293;28;20124;-73
2022/04/19 00:55:12;;;;;;;12.43;8.02;;;8.70;99.90;;;;;;5066948;28;20068;-73
2022/04/19 00:57:39;;;;;;;10.85;7.82;;;8.70;99.90;;;;;;5068064;28;20154;-73
2022/04/19 01:00:08;;;;;;;10.32;7.82;;;8.60;99.90;;;;;;5066599;28;20139;-73
2022/04/19 01:02:35;;;;;;;14.32;7.78;;;8.60;99.90;;;;;;5066942;28;20169;-72
2022/04/19 01:05:01;;;;;;;10.90;7.63;;;8.40;99.90;;;;;;5067517;28;20033;-71
2022/04/19 01:07:27;;;;;;;11.52;8.45;;;8.30;99.90;;;;;;5065045;28;20043;-71
2022/04/19 01:09:53;;;;;;;12.65;8.25;;;8.30;99.90;;;;;;5064457;28;20441;-72
2022/04/19 01:15:05;;;;;;;18.08;9.10;;;8.20;99.90;;;;;;5065436;28;20037;-72
2022/04/19 01:17:34;;;;;;;14.00;9.23;;;8.10;99.90;;;;;;5064516;28;20531;-72
2022/04/19 01:20:03;;;;;;;13.10;8.00;;;8.10;99.90;;;;;;5060722;28;20048;-72
2022/04/19 01:22:40;;;;;;;19.33;10.63;;;8.00;99.90;;;;;;5064036;28;20115;-71
2022/04/19 01:25:07;;;;;;;16.13;10.82;;;8.00;99.90;;;;;;5066050;28;20040;-71
2022/04/19 01:27:33;;;;;;;15.10;10.27;;;7.90;99.90;;;;;;5065310;28;20048;-72
2022/04/19 01:30:04;;;;;;;15.13;10.15;;;7.90;99.90;;;;;;5066355;28;20056;-72
2022/04/19 01:32:33;;;;;;;15.70;10.73;;;7.90;99.90;;;;;;5063581;28;20059;-71
2022/04/19 01:35:25;;;;;;;18.23;11.07;;;7.80;99.90;;;;;;5064506;28;20044;-72
2022/04/19 01:37:51;;;;;;;14.85;10.93;;;7.70;99.90;;;;;;5061026;28;20131;-72
2022/04/19 01:40:18;;;;;;;19.48;12.57;;;7.70;99.90;;;;;;5064640;28;20059;-72
2022/04/19 01:42:45;;;;;;;21.27;13.65;;;7.60;99.90;;;;;;5067025;28;20177;-72
2022/04/19 01:45:13;;;;;;;22.92;13.40;;;7.60;99.90;;;;;;5066448;28;21175;-73
2022/04/19 01:47:39;;;;;;;19.77;13.27;;;7.50;99.90;;;;;;5061420;28;20028;-73
2022/04/19 01:50:09;;;;;;;20.45;13.10;;;7.50;99.90;;;;;;5064715;28;20033;-73
2022/04/19 01:52:36;;;;;;;25.65;12.80;;;7.50;99.90;;;;;;5062366;28;20052;-73
2022/04/19 01:55:02;;;;;;;23.65;13.35;;;7.50;99.90;;;;;;5057323;28;20635;-72
2022/04/19 01:57:28;;;;;;;24.73;13.77;;;7.50;99.90;;;;;;5064257;28;20032;-72
2022/04/19 01:59:54;;;;;;;19.10;13.15;;;7.40;99.90;;;;;;5065897;28;20051;-73
2022/04/19 02:02:19;;;;;;;22.60;13.23;;;7.50;99.90;;;;;;5069319;28;21986;-73
2022/04/19 02:04:45;;;;;;;17.80;10.52;;;7.50;99.90;;;;;;5065067;28;20486;-73
2022/04/19 02:07:11;;;;;;;17.50;10.82;;;7.50;99.90;;;;;;5066037;28;20551;-73
2022/04/19 02:09:36;;;;;;;21.95;12.80;;;7.40;99.90;;;;;;5065945;28;20437;-73
2022/04/19 02:12:04;;;;;;;21.77;12.60;;;7.40;99.90;;;;;;5065286;28;20044;-73
2022/04/19 02:14:30;;;;;;;22.50;13.43;;;7.30;99.90;;;;;;5064206;28;21071;-73
2022/04/19 02:16:56;;;;;;;14.63;8.95;;;7.30;99.90;;;;;;5071345;28;20096;-72
2022/04/19 02:19:21;;;;;;;14.80;9.32;;;7.30;99.90;;;;;;5052757;28;20037;-72
2022/04/19 02:21:47;;;;;;;18.85;10.57;;;7.20;99.90;;;;;;5056689;28;20049;-72
2022/04/19 02:24:13;;;;;;;17.48;10.90;;;7.10;99.90;;;;;;5069194;28;20036;-72
2022/04/19 02:26:38;;;;;;;20.88;12.07;;;7.10;99.90;;;;;;5078200;28;20055;-72
2022/04/19 02:29:04;;;;;;;17.40;11.90;;;7.00;99.90;;;;;;5051245;28;20066;-72
2022/04/19 02:31:30;;;;;;;17.20;11.85;;;7.00;99.90;;;;;;5077429;28;20398;-72
2022/04/19 02:33:58;;;;;;;16.27;10.60;;;7.00;99.90;;;;;;5050335;28;20036;-73
2022/04/19 02:36:25;;;;;;;18.25;11.45;;;7.00;99.90;;;;;;5064094;28;20478;-73
2022/04/19 02:38:51;;;;;;;15.45;11.18;;;7.00;99.90;;;;;;5065312;28;20032;-73
2022/04/19 02:41:16;;;;;;;15.30;10.68;;;6.90;99.90;;;;;;5064292;28;20035;-73
2022/04/19 02:43:42;;;;;;;17.65;10.80;;;6.80;99.90;;;;;;5062905;28;20044;-73
2022/04/19 02:46:09;;;;;;;18.88;10.45;;;6.70;99.90;;;;;;5065234;28;20538;-73
2022/04/19 02:48:34;;;;;;;17.73;11.57;;;6.70;99.90;;;;;;5048844;28;20033;-72
2022/04/19 02:51:00;;;;;;;15.90;10.77;;;6.70;99.90;;;;;;5062845;28;20479;-72
2022/04/19 02:53:26;;;;;;;16.13;11.25;;;6.70;99.90;;;;;;5064186;28;20078;-72
2022/04/19 02:55:52;;;;;;;16.63;11.73;;;6.70;99.90;;;;;;5064402;28;20041;-73
2022/04/19 02:58:18;;;;;;;18.33;13.00;;;6.80;99.90;;;;;;5059635;28;20040;-73
2022/04/19 03:00:43;;;;;;;16.02;12.18;;;6.70;99.90;;;;;;5064198;28;20064;-73
2022/04/19 03:03:09;;;;;;;17.05;12.50;;;6.60;99.90;;;;;;5061404;28;20033;-73
2022/04/19 03:05:39;;;;;;;21.90;14.60;;;6.60;99.90;;;;;;5066074;28;20040;-73
2022/04/19 03:08:05;;;;;;;23.08;14.60;;;6.50;99.90;;;;;;5048557;28;20040;-73
2022/04/19 03:10:30;;;;;;;20.95;14.25;;;6.40;99.90;;;;;;5066505;28;20036;-73
2022/04/19 03:12:56;;;;;;;20.33;13.63;;;6.30;99.90;;;;;;5064372;28;20055;-73
2022/04/19 03:15:22;;;;;;;19.45;13.02;;;6.30;99.90;;;;;;5063934;28;20043;-72
2022/04/19 03:17:48;;;;;;;20.02;13.43;;;6.30;99.90;;;;;;5058300;28;20048;-73
2022/04/19 03:20:14;;;;;;;22.98;12.50;;;6.40;99.90;;;;;;5070449;28;20033;-72
2022/04/19 03:28:11;;;;;;;20.42;11.63;;;6.40;99.90;;;;;;5068467;28;20095;-72
2022/04/19 03:30:38;;;;;;;23.35;12.75;;;6.40;99.90;;;;;;5067067;28;20131;-72
2022/04/19 03:33:04;;;;;;;21.23;12.85;;;6.30;99.90;;;;;;5052874;28;20063;-72
2022/04/19 03:35:30;;;;;;;20.33;13.07;;;6.30;99.90;;;;;;5069330;28;20068;-72
2022/04/19 03:37:56;;;;;;;18.27;12.18;;;6.30;99.90;;;;;;5053376;28;20055;-72
2022/04/19 03:40:22;;;;;;;17.88;12.80;;;6.30;99.90;;;;;;5067967;28;20433;-72
2022/04/19 03:42:47;;;;;;;20.67;12.52;;;6.20;99.90;;;;;;5067249;28;20067;-72
2022/04/19 03:45:13;;;;;;;16.30;9.80;;;6.20;99.90;;;;;;5071071;28;20538;-72
2022/04/19 03:47:39;;;;;;;14.80;8.65;;;6.10;99.90;;;;;;5071812;28;20040;-72
2022/04/19 03:50:06;;;;;;;19.42;13.02;;;6.10;99.90;;;;;;5065254;28;20036;-71
2022/04/19 03:52:34;;;;;;;19.35;13.68;;;6.00;99.90;;;;;;5064042;28;20036;-72
2022/04/19 03:55:00;;;;;;;19.38;13.55;;;6.00;99.90;;;;;;5062867;28;20057;-73
2022/04/19 03:57:28;;;;;;;25.73;14.68;;;6.00;99.90;;;;;;5063388;28;20169;-73
2022/04/19 03:59:54;;;;;;;24.73;15.32;;;5.90;99.90;;;;;;5063336;28;20055;-73
2022/04/19 04:02:20;;;;;;;31.23;15.55;;;5.90;99.90;;;;;;5063704;28;20041;-73
2022/04/19 04:04:46;;;;;;;21.65;14.40;;;5.90;99.90;;;;;;5059914;28;20158;-73
2022/04/19 04:07:12;;;;;;;19.58;13.40;;;5.90;99.90;;;;;;5060920;28;20469;-73
2022/04/19 04:09:38;;;;;;;21.65;13.68;;;5.90;99.90;;;;;;5080754;28;20036;-73
2022/04/19 04:12:09;;;;;;;18.63;12.52;;;5.80;99.90;;;;;;5058038;28;20579;-73
2022/04/19 04:14:35;;;;;;;21.00;12.38;;;5.80;99.90;;;;;;5047170;28;20059;-73
2022/04/19 04:17:01;;;;;;;21.45;13.05;;;5.90;99.90;;;;;;5062885;28;20056;-73
2022/04/19 04:19:27;;;;;;;19.73;12.27;;;5.90;99.90;;;;;;5063722;28;20052;-74
2022/04/19 04:21:53;;;;;;;18.33;11.95;;;5.80;99.90;;;;;;5065415;28;20041;-73
2022/04/19 04:24:20;;;;;;;21.15;11.50;;;5.80;99.90;;;;;;5064506;28;20036;-72
2022/04/19 04:26:46;;;;;;;16.33;12.30;;;5.80;99.90;;;;;;5065379;28;20033;-71
2022/04/19 04:29:12;;;;;;;16.33;11.30;;;5.80;99.90;;;;;;5066793;28;20035;-71
2022/04/19 04:31:38;;;;;;;18.05;11.60;;;5.80;99.90;;;;;;5074033;28;20079;-72
2022/04/19 04:34:04;;;;;;;17.00;10.93;;;5.80;99.90;;;;;;5053471;28;20055;-72
2022/04/19 04:36:30;;;;;;;16.08;10.68;;;5.90;99.90;;;;;;5055415;28;20045;-73
2022/04/19 04:38:56;;;;;;;17.30;11.05;;;5.80;99.90;;;;;;5070453;28;20177;-72
2022/04/19 04:41:22;;;;;;;18.38;11.15;;;5.80;99.90;;;;;;5066332;28;20037;-72
2022/04/19 04:43:47;;;;;;;15.25;11.18;;;5.90;99.90;;;;;;5065491;28;20036;-72
2022/04/19 04:51:41;;;;;;;15.65;10.15;;;5.90;99.90;;;;;;5066628;28;20040;-71
2022/04/19 04:54:07;;;;;;;17.58;11.05;;;5.90;99.90;;;;;;5067727;28;20036;-71
2022/04/19 04:56:33;;;;;;;15.20;11.00;;;5.80;99.90;;;;;;5066831;28;20055;-72
2022/04/19 04:58:59;;;;;;;16.00;10.93;;;5.80;99.90;;;;;;5067246;28;20540;-71
2022/04/19 05:01:25;;;;;;;14.10;10.48;;;5.80;99.90;;;;;;5068579;28;20086;-72
2022/04/19 05:03:50;;;;;;;15.80;10.98;;;5.70;99.90;;;;;;5065239;28;20040;-71
2022/04/19 05:06:16;;;;;;;14.85;10.07;;;5.70;99.90;;;;;;5064761;28;20525;-72
2022/04/19 05:08:41;;;;;;;14.40;9.75;;;5.80;99.90;;;;;;5063932;28;20048;-72
2022/04/19 05:11:07;;;;;;;15.52;9.98;;;5.80;99.90;;;;;;5052248;28;20048;-72
2022/04/19 05:13:33;;;;;;;16.25;10.82;;;5.80;99.90;;;;;;5081830;22;20511;-72
2022/04/19 05:15:58;;;;;;;16.52;11.30;;;5.90;99.90;;;;;;5065363;28;20035;-72
2022/04/19 05:18:25;;;;;;;14.32;10.68;;;5.90;99.90;;;;;;5069675;28;20477;-72
2022/04/19 05:20:52;;;;;;;18.15;12.00;;;5.90;99.90;;;;;;5065725;28;20104;-72
2022/04/19 05:23:18;;;;;;;16.73;11.40;;;5.90;99.90;;;;;;5064441;28;20040;-72
2022/04/19 05:25:43;;;;;;;15.60;11.10;;;6.00;99.90;;;;;;5088178;28;20550;-72
2022/04/19 05:28:09;;;;;;;17.25;12.20;;;6.00;99.90;;;;;;5086541;28;20079;-72
2022/04/19 05:30:35;;;;;;;19.15;11.23;;;6.10;99.90;;;;;;5088664;28;20043;-72
2022/04/19 05:33:00;;;;;;;20.55;12.05;;;6.20;99.90;;;;;;5069352;28;20040;-72
2022/04/19 05:35:26;;;;;;;19.50;11.52;;;6.20;99.90;;;;;;5086525;28;20094;-72
2022/04/19 05:37:53;;;;;;;19.00;12.00;;;6.30;99.90;;;;;;5082666;28;20408;-73
2022/04/19 05:40:19;;;;;;;29.58;13.98;;;6.40;99.90;;;;;;5083029;28;20044;-72
2022/04/19 05:42:44;;;;;;;27.27;14.80;;;6.40;99.90;;;;;;5084250;28;20400;-72
2022/04/19 05:45:10;;;;;;;31.10;15.43;;;6.50;99.90;;;;;;5088076;28;21797;-72
2022/04/19 05:47:36;;;;;;;31.20;16.60;;;6.50;99.90;;;;;;5090019;28;20105;-72
2022/04/19 05:50:02;;;;;;;30.88;16.33;;;6.60;99.90;;;;;;5081563;28;20044;-72
2022/04/19 05:52:27;;;;;;;29.92;15.68;;;6.60;99.90;;;;;;5069998;28;20090;-72
2022/04/19 05:54:53;;;;;;;24.70;15.38;;;6.70;99.90;;;;;;5086173;28;20036;-72
2022/04/19 05:57:18;;;;;;;28.63;15.75;;;6.80;99.90;;;;;;5086108;28;20047;-72
2022/04/19 05:59:44;;;;;;;29.33;15.75;;;6.90;99.90;;;;;;5084233;28;20061;-73
2022/04/19 06:04:54;;;;;;;27.17;13.85;;;7.00;99.90;;;;;;5085981;28;20059;-72
2022/04/19 06:07:25;;;;;;;24.77;14.70;;;7.00;99.90;;;;;;5088237;28;20032;-72
2022/04/19 06:09:50;;;;;;;26.10;14.15;;;7.10;99.90;;;;;;5088389;28;20032;-73
2022/04/19 06:12:16;;;;;;;29.65;16.05;;;7.20;99.90;;;;;;5083271;28;20047;-73
2022/04/19 06:14:42;;;;;;;28.27;15.20;;;7.30;99.90;;;;;;5064823;28;20051;-72
2022/04/19 06:17:11;;;;;;;27.85;15.95;;;7.30;99.90;;;;;;5083680;28;20065;-72
2022/04/19 06:19:37;;;;;;;29.33;15.68;;;7.40;99.90;;;;;;5081251;28;20046;-73
2022/04/19 06:22:04;;;;;;;28.55;14.82;;;7.50;99.90;;;;;;5079517;28;20033;-72
2022/04/19 06:24:29;;;;;;;28.40;14.25;;;7.60;99.90;;;;;;5082463;28;20038;-72
2022/04/19 06:26:55;;;;;;;22.63;13.45;;;7.60;99.90;;;;;;5061348;28;20036;-73
2022/04/19 06:29:21;;;;;;;16.33;11.25;;;7.70;99.90;;;;;;5080768;28;20038;-73
2022/04/19 06:31:47;;;;;;;18.98;10.55;;;7.80;99.90;;;;;;5079462;28;20043;-73
2022/04/19 06:34:13;;;;;;;13.93;9.73;;;7.90;99.90;;;;;;5080793;28;20440;-73
2022/04/19 06:36:39;;;;;;;14.57;9.98;;;8.10;99.90;;;;;;5077803;28;20044;-72
2022/04/19 06:39:04;;;;;;;13.95;9.20;;;8.20;99.90;;;;;;5084130;28;20036;-72
2022/04/19 06:41:30;;;;;;;13.80;9.02;;;8.40;99.90;;;;;;5084293;28;20036;-73
2022/04/19 06:43:58;;;;;;;13.52;8.88;;;8.50;99.90;;;;;;5069546;28;20074;-73
2022/04/19 06:46:26;;;;;;;11.50;8.45;;;8.60;99.90;;;;;;5088875;28;20028;-73
2022/04/19 06:48:54;;;;;;;12.00;8.65;;;8.80;99.90;;;;;;5083009;28;20039;-73
2022/04/19 06:51:21;;;;;;;12.15;8.35;;;8.90;99.90;;;;;;5081476;28;20051;-73
2022/04/19 06:53:46;;;;;;;9.82;7.72;;;9.10;99.90;;;;;;5067062;28;20089;-73
2022/04/19 06:56:12;;;;;;;10.73;8.25;;;9.20;99.90;;;;;;5086169;28;20036;-73
2022/04/19 06:58:39;;;;;;;12.23;7.88;;;9.40;99.90;;;;;;5081575;28;20074;-72
2022/04/19 07:01:06;;;;;;;10.52;7.80;;;9.50;99.90;;;;;;5076358;28;20085;-73
2022/04/19 07:03:33;;;;;;;10.65;7.82;;;9.70;99.90;;;;;;5081696;28;20028;-73
2022/04/19 07:06:00;;;;;;;11.48;8.55;;;9.80;99.90;;;;;;5079009;28;20044;-73
2022/04/19 07:08:25;;;;;;;9.70;7.75;;;10.00;99.90;;;;;;5100678;28;20040;-73
2022/04/19 07:10:51;;;;;;;12.88;8.23;;;10.10;99.90;;;;;;5085242;28;20055;-73
2022/04/19 07:13:17;;;;;;;9.07;7.90;;;10.30;99.90;;;;;;5083617;28;20043;-73
2022/04/19 07:15:43;;;;;;;11.82;8.70;;;10.40;99.90;;;;;;5086528;28;20078;-73
2022/04/19 07:18:09;;;;;;;12.20;8.07;;;10.60;99.90;;;;;;5077001;28;20090;-73
2022/04/19 07:28:47;;;;;;;9.77;7.53;;;11.10;99.90;;;;;;5078941;28;20060;-73
2022/04/19 07:31:13;;;;;;;12.57;8.85;;;11.40;99.90;;;;;;5086440;28;20514;-73
2022/04/19 07:33:40;;;;;;;11.65;8.40;;;11.60;99.90;;;;;;5085314;28;20036;-73
2022/04/19 07:36:08;;;;;;;12.45;8.82;;;11.70;99.90;;;;;;5087077;28;20051;-73
2022/04/19 07:38:34;;;;;;;15.38;9.10;;;11.80;99.90;;;;;;5082488;28;20448;-73
2022/04/19 07:40:59;;;;;;;15.52;8.43;;;11.90;99.90;;;;;;5066057;28;20052;-73
2022/04/19 07:43:25;;;;;;;13.80;8.05;;;12.10;99.90;;;;;;5085561;28;20035;-73
2022/04/19 07:45:51;;;;;;;14.52;7.65;;;12.20;99.90;;;;;;5066242;28;20044;-73
2022/04/19 07:48:18;;;;;;;13.40;7.88;;;12.30;99.90;;;;;;5075841;28;20115;-73
2022/04/19 07:50:44;;;;;;;10.23;7.40;;;12.50;99.90;;;;;;5080001;28;20081;-73
2022/04/19 07:53:10;;;;;;;12.35;6.88;;;12.60;99.90;;;;;;5079650;28;20386;-73
2022/04/19 07:55:36;;;;;;;11.50;7.40;;;12.80;99.90;;;;;;5086464;28;20039;-73
2022/04/19 07:58:03;;;;;;;10.05;7.25;;;13.00;99.90;;;;;;5082807;28;20055;-73
2022/04/19 08:00:30;;;;;;;8.07;6.30;;;13.20;99.90;;;;;;5081715;28;20127;-74
2022/04/19 08:02:56;;;;;;;8.50;5.90;;;13.30;99.90;;;;;;5083875;28;20033;-73
2022/04/19 08:05:23;;;;;;;8.77;5.50;;;13.40;99.90;;;;;;5090600;28;20085;-73
2022/04/19 08:07:49;;;;;;;7.13;5.65;;;13.60;99.90;;;;;;5081634;28;20047;-73
2022/04/19 08:10:19;;;;;;;8.80;5.55;;;13.70;99.90;;;;;;5091731;28;20039;-73
2022/04/19 08:12:45;;;;;;;11.15;5.38;;;13.90;99.90;;;;;;5081027;28;20097;-73
2022/04/19 08:15:13;;;;;;;10.82;5.93;;;14.00;99.90;;;;;;5086671;28;20044;-73
2022/04/19 08:17:39;;;;;;;7.30;5.22;;;14.20;97.10;;;;;;5086575;28;20122;-73
2022/04/19 08:20:06;;;;;;;8.23;5.40;;;14.40;96.40;;;;;;5074742;28;20125;-73
2022/04/19 08:22:32;;;;;;;10.73;6.63;;;14.60;97.50;;;;;;5069419;28;20036;-73
2022/04/19 08:24:57;;;;;;;8.85;5.60;;;14.80;97.90;;;;;;5081154;28;20044;-73
2022/04/19 08:27:23;;;;;;;9.93;5.70;;;14.90;93.90;;;;;;5085405;28;20040;-74
2022/04/19 08:29:49;;;;;;;8.18;5.18;;;15.00;90.20;;;;;;5089842;28;20141;-73
2022/04/19 08:32:15;;;;;;;7.25;5.47;;;15.10;91.90;;;;;;5087253;28;20047;-73
2022/04/19 08:34:40;;;;;;;9.18;5.50;;;15.30;91.80;;;;;;5068970;28;20051;-73
2022/04/19 08:37:07;;;;;;;7.00;5.90;;;15.40;86.90;;;;;;5084316;28;20044;-73
2022/04/19 08:39:33;;;;;;;9.88;5.95;;;15.50;87.20;;;;;;5080508;28;20529;-73
2022/04/19 08:41:59;;;;;;;8.75;6.20;;;15.70;80.10;;;;;;5083631;28;20044;-73
2022/04/19 08:44:25;;;;;;;6.70;5.93;;;15.80;78.60;;;;;;5084549;28;20046;-73
2022/04/19 08:46:54;;;;;;;8.77;6.10;;;16.00;82.50;;;;;;5088352;28;20036;-73
2022/04/19 08:49:20;;;;;;;8.07;5.38;;;16.00;84.50;;;;;;5084863;28;20544;-74
2022/04/19 08:51:46;;;;;;;6.40;5.28;;;16.10;82.60;;;;;;5082865;28;20054;-73
2022/04/19 08:59:41;;;;;;;7.07;5.80;;;16.40;71.70;;;;;;5087936;28;20067;-73
2022/04/19 09:02:07;;;;;;;9.77;6.05;;;16.50;74.10;;;;;;5083054;28;20120;-73
2022/04/19 09:04:33;;;;;;;6.65;5.75;;;16.50;80.30;;;;;;5076711;28;20028;-73
2022/04/19 09:07:00;;;;;;;6.88;5.43;;;16.60;78.00;;;;;;5072520;28;20036;-73
2022/04/19 09:09:34;;;;;;;6.70;5.45;;;16.70;77.00;;;;;;5089466;28;20040;-73
2022/04/19 09:12:06;;;;;;;6.30;5.15;;;16.80;74.00;;;;;;5087772;28;20101;-73
2022/04/19 09:14:32;;;;;;;5.72;4.60;;;16.90;72.40;;;;;;5082437;28;20127;-74
2022/04/19 09:17:08;;;;;;;5.80;4.32;;;17.00;74.20;;;;;;5089613;28;20131;-73
2022/04/19 09:19:34;;;;;;;8.18;5.13;;;17.00;72.50;;;;;;5088818;28;20467;-74
2022/04/19 09:22:00;;;;;;;6.78;4.60;;;17.10;70.40;;;;;;5091875;28;20126;-73
2022/04/19 09:24:27;;;;;;;4.78;4.10;;;17.10;68.30;;;;;;5080056;28;20032;-74
2022/04/19 09:26:53;;;;;;;4.57;3.70;;;17.20;67.90;;;;;;5089187;28;20044;-73
2022/04/19 09:29:23;;;;;;;3.30;2.65;;;17.30;68.80;;;;;;5086116;28;20065;-73
2022/04/19 09:31:53;;;;;;;3.80;3.03;;;17.50;62.70;;;;;;5087167;28;20036;-73
2022/04/19 09:34:37;;;;;;;3.97;2.28;;;17.50;60.80;;;;;;5090015;28;20043;-73
2022/04/19 09:37:07;;;;;;;6.90;2.95;;;17.70;59.30;;;;;;5089642;28;20059;-74
2022/04/19 09:39:36;;;;;;;6.60;2.97;;;17.70;61.20;;;;;;5085499;28;20130;-73
2022/04/19 09:42:04;;;;;;;3.42;2.28;;;17.80;58.20;;;;;;5094519;28;20397;-73
2022/04/19 09:44:35;;;;;;;2.55;2.33;;;17.90;56.10;;;;;;5086891;28;20043;-74
2022/04/19 09:47:11;;;;;;;4.10;2.30;;;18.10;53.30;;;;;;5085425;28;20040;-74
2022/04/19 09:49:48;;;;;;;4.47;2.30;;;18.20;52.30;;;;;;5083410;28;20047;-74
2022/04/19 09:52:36;;;;;;;3.20;2.05;;;18.30;52.90;;;;;;5088095;28;20036;-73
2022/04/19 09:55:08;;;;;;;4.43;2.20;;;18.40;50.80;;;;;;5071864;28;20040;-74
2022/04/19 09:57:38;;;;;;;3.60;2.45;;;18.50;48.00;;;;;;5088841;28;20036;-74
2022/04/19 10:00:12;;;;;;;5.47;2.55;;;18.70;49.80;;;;;;5082766;28;20048;-74
2022/04/19 10:08:23;;;;;;;5.05;2.00;;;19.00;42.80;;;;;;5087424;28;20043;-74
2022/04/19 10:10:51;;;;;;;3.80;1.83;;;19.10;44.00;;;;;;5083892;28;20207;-74
2022/04/19 10:13:19;;;;;;;2.97;2.20;;;19.30;45.70;;;;;;5081878;28;20093;-73
2022/04/19 10:15:45;;;;;;;6.63;2.22;;;19.50;44.50;;;;;;5089339;28;20048;-74
2022/04/19 10:18:11;;;;;;;5.10;2.70;;;19.50;46.10;;;;;;5075293;28;20044;-74
2022/04/19 10:20:42;;;;;;;3.05;2.60;;;19.50;45.30;;;;;;5085181;28;20036;-74
2022/04/19 10:23:10;;;;;;;2.65;2.28;;;19.60;46.20;;;;;;5081927;28;20041;-73
2022/04/19 10:25:43;;;;;;;3.63;2.00;;;19.80;46.20;;;;;;5079992;28;20119;-73
2022/04/19 10:28:11;;;;;;;1.80;1.50;;;19.90;44.30;;;;;;5076623;28;20111;-73
2022/04/19 10:30:39;;;;;;;3.88;1.60;;;19.90;43.80;;;;;;5082975;28;20131;-74
2022/04/19 10:33:41;;;;;;;2.28;1.80;;;20.00;43.90;;;;;;5082277;28;20436;-74
2022/04/19 10:36:20;;;;;;;3.13;1.65;;;20.20;46.40;;;;;;5085908;28;20039;-74
2022/04/19 10:39:19;;;;;;;3.00;1.80;;;20.40;41.70;;;;;;5080157;28;20084;-74
2022/04/19 10:41:55;;;;;;;4.82;1.92;;;20.50;42.40;;;;;;5083937;28;20036;-74
2022/04/19 10:44:36;;;;;;;4.85;2.50;;;20.50;43.50;;;;;;5088137;28;20043;-74
2022/04/19 10:47:15;;;;;;;1.77;1.52;;;20.70;42.60;;;;;;5083193;28;20197;-74
2022/04/19 10:49:50;;;;;;;6.40;3.40;;;20.80;42.30;;;;;;5079558;28;20032;-74
2022/04/19 10:52:42;;;;;;;4.93;2.22;;;20.90;40.10;;;;;;5104027;27;20039;-74
2022/04/19 10:55:08;;;;;;;3.50;1.70;;;21.00;41.50;;;;;;5106496;27;20032;-74
2022/04/19 11:00:35;;;;;;;;;;;21.00;40.30;;;;;;5080195;28;20052;-74
2022/04/19 11:03:02;;;;;;;5.07;2.92;;;21.20;40.60;;;;;;4971137;28;19970;-74
2022/04/19 11:05:41;;;;;;;6.95;2.58;;;21.30;40.20;;;;;;5022443;28;20037;-74
2022/04/19 11:08:25;;;;;;;3.45;2.50;;;21.40;39.20;;;;;;5020406;28;20030;-74
2022/04/19 11:10:56;;;;;;;2.30;1.83;;;21.30;42.00;;;;;;5023141;28;20037;-74
2022/04/19 11:13:23;;;;;;;4.20;2.57;;;21.20;41.30;;;;;;5056718;28;20175;-74
2022/04/19 11:15:57;;;;;;;3.80;2.47;;;21.40;42.20;;;;;;5027859;28;20052;-74
2022/04/19 11:18:29;;;;;;;7.13;2.97;;;21.50;40.50;;;;;;5028094;28;20045;-74
2022/04/19 11:21:03;;;;;;;4.28;2.00;;;21.40;40.20;;;;;;5028722;28;20067;-74
2022/04/19 11:23:44;;;;;;;3.10;2.10;;;21.50;42.50;;;;;;5028475;28;20037;-74
2022/04/19 11:26:34;;;;;;;3.05;1.98;;;21.60;42.70;;;;;;5026372;28;20033;-74
2022/04/19 11:29:14;;;;;;;3.58;1.70;;;21.70;42.70;;;;;;5028144;28;20042;-74
2022/04/19 11:31:43;;;;;;;3.13;1.60;;;21.80;40.30;;;;;;5021337;28;20042;-74
2022/04/19 11:34:13;;;;;;;6.90;4.68;;;21.90;41.10;;;;;;5054472;28;20037;-73
2022/04/19 11:36:39;;;;;;;8.63;2.58;;;22.00;39.30;;;;;;5030038;28;20550;-73
2022/04/19 11:39:05;;;;;;;4.57;1.70;;;22.00;41.00;;;;;;5029937;28;20038;-73
2022/04/19 11:47:10;;;;;;;4.30;2.88;;;22.10;39.60;;;;;;5031169;28;20129;-73
2022/04/19 11:49:36;;;;;;;7.30;1.90;;;22.20;39.80;;;;;;5032919;28;20152;-73
2022/04/19 11:52:12;;;;;;;2.60;1.50;;;22.10;41.50;;;;;;5016211;28;20041;-73
2022/04/19 11:54:39;;;;;;;4.28;1.48;;;22.20;40.80;;;;;;5027228;28;20420;-73
2022/04/19 11:57:14;;;;;;;2.90;1.40;;;22.10;39.40;;;;;;5029184;28;20044;-73
2022/04/19 11:59:41;;;;;;;7.18;1.45;;;22.20;39.20;;;;;;5031152;28;20685;-73
2022/04/19 12:02:18;;;;;;;2.67;2.38;;;22.30;38.70;;;;;;5031386;28;20508;-73
2022/04/19 12:04:56;;;;;;;4.43;1.90;;;22.20;39.10;;;;;;5027861;28;20046;-73
2022/04/19 12:07:23;;;;;;;8.85;3.90;;;22.30;41.00;;;;;;5029900;28;20530;-74
2022/04/19 12:09:51;;;;;;;2.47;1.73;;;22.30;40.10;;;;;;5028882;28;20522;-74
2022/04/19 12:12:17;;;;;;;4.78;1.80;;;22.40;41.70;;;;;;5032092;28;20039;-74
2022/04/19 12:14:49;;;;;;;6.28;2.15;;;22.50;40.10;;;;;;5029399;28;20391;-74
2022/04/19 12:17:18;;;;;;;;;;;22.60;39.50;;;;;;5012052;28;20123;-74
2022/04/19 12:19:44;;;;;;;5.57;2.00;;;22.60;39.80;;;;;;5062786;28;19917;-74
2022/04/19 12:22:20;;;;;;;1.88;1.60;;;22.70;39.80;;;;;;5058152;28;20416;-73
2022/04/19 12:24:53;;;;;;;4.82;1.80;;;22.80;41.70;;;;;;5029730;28;20072;-73
2022/04/19 12:27:24;;;;;;;7.07;2.72;;;22.70;42.10;;;;;;5027339;28;20042;-73
2022/04/19 12:30:02;;;;;;;2.15;1.67;;;22.70;39.50;;;;;;5026346;28;20128;-73
2022/04/19 12:32:50;;;;;;;5.28;2.17;;;22.80;40.30;;;;;;5028344;28;20507;-73
2022/04/19 12:35:17;;;;;;;4.28;1.85;;;22.70;40.20;;;;;;5022414;28;20703;-73
2022/04/19 12:37:43;;;;;;;6.93;2.67;;;22.90;40.20;;;;;;5035268;28;20503;-73
2022/04/19 12:40:10;;;;;;;2.53;2.13;;;23.00;39.90;;;;;;5032378;28;20365;-74
2022/04/19 12:42:48;;;;;;;4.20;2.22;;;23.10;39.00;;;;;;5027308;28;20394;-74
2022/04/19 12:45:14;;;;;;;2.38;1.40;;;23.10;38.90;;;;;;5027054;28;20033;-74
2022/04/19 12:47:48;;;;;;;3.33;1.30;;;23.20;39.10;;;;;;5028286;28;20462;-74
2022/04/19 12:50:16;;;;;;;2.83;1.40;;;23.20;38.10;;;;;;5027989;28;20026;-74
2022/04/19 12:52:42;;;;;;;2.65;1.48;;;23.30;36.90;;;;;;5029242;28;20069;-74
2022/04/19 12:55:09;;;;;;;3.58;1.48;;;23.20;39.30;;;;;;5024616;28;20064;-73
2022/04/19 12:57:38;;;;;;;4.63;2.40;;;23.20;38.70;;;;;;5029111;28;20121;-73
2022/04/19 13:00:11;;;;;;;4.18;2.25;;;23.30;39.70;;;;;;5028981;28;20507;-74
2022/04/19 13:02:39;;;;;;;1.73;1.60;;;23.40;39.20;;;;;;5021814;28;20411;-74
2022/04/19 13:05:06;;;;;;;3.28;1.90;;;23.60;38.70;;;;;;5030603;28;20038;-74
2022/04/19 13:13:04;;;;;;;3.60;1.90;;;23.70;38.60;;;;;;5028446;28;20041;-75
2022/04/19 13:15:34;;;;;;;2.40;1.90;;;23.80;37.80;;;;;;5029029;28;20068;-73
2022/04/19 13:18:00;;;;;;;3.35;2.47;;;23.90;38.20;;;;;;5031289;28;20079;-74
2022/04/19 13:20:26;;;;;;;3.47;2.40;;;24.00;38.50;;;;;;5027940;28;20681;-74
2022/04/19 13:22:51;;;;;;;3.60;2.30;;;24.10;39.40;;;;;;5029858;28;20403;-74
2022/04/19 13:25:20;;;;;;;3.92;1.80;;;24.30;38.30;;;;;;5011475;28;20063;-74
2022/04/19 13:27:46;;;;;;;2.78;1.95;;;24.30;40.30;;;;;;5028077;28;20033;-74
2022/04/19 13:30:19;;;;;;;2.33;2.05;;;24.20;37.60;;;;;;5010676;28;20113;-74
2022/04/19 13:32:46;;;;;;;5.30;2.45;;;24.30;38.80;;;;;;5028349;28;20037;-74
2022/04/19 13:35:12;;;;;;;6.30;2.30;;;24.30;38.00;;;;;;5013869;28;20029;-74
2022/04/19 13:40:22;;;;;;;6.10;2.00;;;24.30;38.00;;;;;;5027578;28;20099;-75